Flight Track Log - Related Links

Times and Time Zones

All times are in EDT time to prevent confusion due to time zone crossing. See the SWA864 flight status page for this flight to view local times or setup timezone preferences in your user account.

Time Position Orientation Groundspeed Altitude Reporting Facility
EDT Latitude Longitude Course Direction KTS MPH feet Rate Location/Type
Sat 10:26:22 AM 26.0750 -80.1367 83° East 165 190 700  Level Miami Center
Sat 10:26:46 AM 26.0775 -80.1136 83° East 180 207 1,400 1,912 Climbing Miami Center
Sat 10:27:53 AM 26.1000 -80.0472 69° East 260 299 3,600 2,484 Climbing Miami Center
Sat 10:28:54 AM 26.1772 -80.0492 359° North 280 322 6,700 2,304 Climbing Miami Center
Sat 10:29:45 AM 26.2458 -80.0650 348° North 302 348 7,900 1,135 Climbing Miami Center
Sat 10:30:45 AM 26.2608 -80.1417 282° West 288 331 8,800 1,550 Climbing Miami Center
Sat 10:31:45 AM 26.2689 -80.2369 275° West 302 348 11,000 1,100 Climbing Miami Center
Sat 10:32:45 AM 26.2767 -80.3553 274° West 342 394 11,000 350 Level Miami Center
Sat 10:33:45 AM 26.2847 -80.4553 275° West 363 418 11,700 1,000 Climbing Miami Center
Sat 10:34:45 AM 26.3067 -80.5811 281° West 374 430 13,000 700 Climbing Miami Center
Sat 10:35:45 AM 26.3650 -80.6686 307° West 376 433 13,100 1,500 Climbing Miami Center
Sat 10:36:45 AM 26.4586 -80.7550 320° Northwest 389 448 16,000 2,350 Climbing Miami Center
Sat 10:37:45 AM 26.5425 -80.8228 324° Northwest 411 473 17,800 1,950 Climbing Miami Center
Sat 10:38:45 AM 26.6406 -80.9028 324° Northwest 429 494 19,900 2,050 Climbing Miami Center
Sat 10:39:45 AM 26.7508 -80.9928 324° Northwest 446 513 21,900 1,650 Climbing Miami Center
Sat 10:40:45 AM 26.8425 -81.0706 323° Northwest 451 519 23,200 1,350 Climbing Miami Center
Sat 10:41:45 AM 26.9444 -81.1556 323° Northwest 451 519 24,600 1,400 Climbing Miami Center
Sat 10:42:45 AM 27.0544 -81.2461 324° Northwest 469 540 26,000 1,550 Climbing Miami Center
Sat 10:43:45 AM 27.1767 -81.3439 325° Northwest 491 565 27,700 1,700 Climbing Miami Center
Sat 10:44:45 AM 27.2864 -81.4369 323° Northwest 491 565 29,400 1,500 Climbing Miami Center
Sat 10:45:45 AM 27.3964 -81.5233 325° Northwest 491 565 30,700 1,500 Climbing Miami Center
Sat 10:46:45 AM 27.5042 -81.6142 323° Northwest 491 565 32,400 1,650 Climbing Miami Center
Sat 10:47:45 AM 27.5994 -81.6956 323° Northwest 485 558 34,000 1,350 Climbing Miami Center
Sat 10:48:45 AM 27.7031 -81.7794 324° Northwest 477 549 35,100 667 Climbing Miami Center
Sat 10:50:45 AM 27.9275 -81.9600 325° Northwest 492 566 36,000 300 Climbing Jacksonville Center
Sat 10:51:45 AM 28.0303 -82.0508 322° Northwest 487 560 36,000 300 Level Jacksonville Center
Sat 10:52:45 AM 28.1206 -82.1489 316° Northwest 471 542 36,600 942 Climbing Jacksonville Center
Sat 10:53:46 AM 28.2006 -82.2567 310° West 451 519 37,900 700 Climbing Jacksonville Center
Sat 10:54:45 AM 28.2783 -82.3647 309° West 451 519 38,000 50 Climbing Jacksonville Center
Sat 10:55:45 AM 28.3558 -82.4728 309° West 446 513 38,000  Level Jacksonville Center
Sat 10:56:45 AM 28.4375 -82.5811 311° West 446 513 38,000  Level Jacksonville Center
Sat 10:57:45 AM 28.5150 -82.6917 309° West 446 513 38,000  Level Jacksonville Center
Sat 10:58:45 AM 28.5944 -82.7956 311° West 440 506 38,000  Level Jacksonville Center
Sat 10:59:45 AM 28.6694 -82.9044 308° West 440 506 38,000  Level Jacksonville Center
Sat 11:00:45 AM 28.7467 -83.0064 311° West 440 506 38,000  Level Jacksonville Center
Sat 11:01:45 AM 28.8239 -83.1131 310° West 440 506 38,000  Level Jacksonville Center
Sat 11:02:45 AM 28.9008 -83.2222 309° West 440 506 38,000  Level Jacksonville Center
Sat 11:03:45 AM 28.9797 -83.3317 310° West 440 506 38,000  Level Jacksonville Center
Sat 11:04:45 AM 29.0567 -83.4389 309° West 440 506 38,000  Level Jacksonville Center
Sat 11:05:45 AM 29.1397 -83.5439 312° West 445 512 38,000  Level Jacksonville Center
Sat 11:06:45 AM 29.2267 -83.6469 314° West 445 512 38,000 -50 Level Jacksonville Center
Sat 11:07:45 AM 29.3117 -83.7475 314° West 440 506 37,900  Descending Jacksonville Center
Sat 11:08:45 AM 29.3986 -83.8436 316° Northwest 435 501 38,000 50 Climbing Jacksonville Center
Sat 11:09:45 AM 29.4794 -83.9397 314° West 430 495 38,000  Level Jacksonville Center
Sat 11:10:45 AM 29.5556 -84.0433 310° West 430 495 38,000  Level Jacksonville Center
Sat 11:11:45 AM 29.6297 -84.1494 309° West 424 488 38,000  Level Jacksonville Center
Sat 11:12:45 AM 29.7039 -84.2603 308° West 429 494 38,000  Level Jacksonville Center
Sat 11:13:45 AM 29.7739 -84.3569 310° West 434 499 38,000  Level Jacksonville Center
Sat 11:14:45 AM 29.8475 -84.4658 308° West 434 499 38,000  Level Jacksonville Center
Sat 11:15:45 AM 29.9214 -84.5750 308° West 440 506 38,000  Level Jacksonville Center
Sat 11:16:45 AM 30.0014 -84.6842 310° West 445 512 38,000  Level Jacksonville Center
Sat 11:17:45 AM 30.0747 -84.7961 307° West 440 506 38,000  Level Jacksonville Center
Sat 11:18:45 AM 30.1525 -84.9056 309° West 440 506 38,000  Level Jacksonville Center
Sat 11:19:45 AM 30.2300 -85.0178 309° West 440 506 38,000  Level Jacksonville Center
Sat 11:20:45 AM 30.3033 -85.1300 307° West 440 506 38,000  Level Jacksonville Center
Sat 11:21:45 AM 30.3806 -85.2428 308° West 440 506 38,000  Level Jacksonville Center
Sat 11:22:45 AM 30.4578 -85.3531 309° West 440 506 38,000  Level Jacksonville Center
Sat 11:23:45 AM 30.5328 -85.4683 307° West 445 512 38,000  Level Jacksonville Center
Sat 11:24:45 AM 30.6078 -85.5789 308° West 445 512 38,000  Level Jacksonville Center
Sat 11:25:45 AM 30.6867 -85.6947 308° West 445 512 38,000  Level Jacksonville Center
Sat 11:26:45 AM 30.7592 -85.8081 307° West 445 512 38,000  Level Jacksonville Center
Sat 11:27:45 AM 30.8381 -85.9217 309° West 445 512 38,000  Level Jacksonville Center
Sat 11:28:45 AM 30.9144 -86.0381 307° West 445 512 38,000  Level Jacksonville Center
Sat 11:29:45 AM 30.9908 -86.1544 307° West 445 512 38,000  Level Jacksonville Center
Sat 11:30:45 AM 31.0653 -86.2708 307° West 445 512 38,000  Level Jacksonville Center
Sat 11:33:00 AM 31.2372 -86.5328 308° West 464 534 38,000  Level Atlanta Center
Sat 11:34:00 AM 31.3119 -86.6517 306° West 459 528 38,000  Level Atlanta Center
Sat 11:35:00 AM 31.3928 -86.7828 306° West 459 528 38,000  Level Atlanta Center
Sat 11:36:00 AM 31.4528 -86.8967 302° West 454 522 38,000  Level Atlanta Center
Sat 11:37:00 AM 31.5353 -87.0233 307° West 447 514 38,000  Level Atlanta Center
Sat 11:38:00 AM 31.6033 -87.1428 304° West 447 514 38,000  Level Atlanta Center
Sat 11:39:00 AM 31.6733 -87.2597 305° West 447 514 38,000  Level Atlanta Center
Sat 11:40:08 AM 31.7431 -87.3844 303° West 447 514 38,000  Level Atlanta Center
Sat 11:41:08 AM 31.8150 -87.5044 305° West 447 514 38,000  Level Atlanta Center
Sat 11:42:08 AM 31.8825 -87.6219 304° West 447 514 38,000  Level Atlanta Center
Sat 11:44:32 AM 32.0467 -87.9139 304° West 451 519 38,000  Level Memphis Center
Sat 11:45:32 AM 32.1158 -88.0347 304° West 451 519 38,000  Level Memphis Center
Sat 11:46:32 AM 32.1847 -88.1556 304° West 451 519 38,000  Level Memphis Center
Sat 11:47:32 AM 32.2622 -88.2911 304° West 451 519 38,000  Level Memphis Center
Sat 11:48:32 AM 32.3289 -88.4128 303° West 451 519 38,000  Level Memphis Center
Sat 11:49:32 AM 32.3956 -88.5342 303° West 451 519 38,000  Level Memphis Center
Sat 11:50:32 AM 32.4639 -88.6511 305° West 446 513 38,000  Level Memphis Center
Sat 11:51:32 AM 32.5322 -88.7706 304° West 446 513 38,000  Level Memphis Center
Sat 11:52:32 AM 32.6006 -88.8950 303° West 441 507 38,000  Level Memphis Center
Sat 11:53:32 AM 32.6689 -89.0147 304° West 441 507 38,000  Level Memphis Center
Sat 11:54:32 AM 32.7347 -89.1347 303° West 441 507 38,000  Level Memphis Center
Sat 11:55:32 AM 32.8028 -89.2575 303° West 441 507 38,000  Level Memphis Center
Sat 11:56:32 AM 32.8683 -89.3778 303° West 441 507 38,000  Level Memphis Center
Sat 11:57:32 AM 32.9361 -89.4983 304° West 441 507 38,000  Level Memphis Center
Sat 11:58:32 AM 33.0058 -89.6217 304° West 441 507 38,000  Level Memphis Center
Sat 11:59:32 AM 33.0753 -89.7425 304° West 436 502 38,000  Level Memphis Center
Sat 12:00:32 PM 33.1364 -89.8586 302° West 448 516 38,000  Level Memphis Center
Sat 12:01:32 PM 33.1994 -89.9847 301° West 448 516 38,000  Level Memphis Center
Sat 12:02:32 PM 33.2667 -90.1064 303° West 448 516 38,000  Level Memphis Center
Sat 12:03:32 PM 33.3336 -90.2331 302° West 448 516 38,000  Level Memphis Center
Sat 12:04:32 PM 33.3983 -90.3547 303° West 448 516 38,000  Level Memphis Center
Sat 12:05:32 PM 33.4650 -90.4817 302° West 448 516 38,000  Level Memphis Center
Sat 12:06:32 PM 33.5317 -90.6039 303° West 448 516 38,000  Level Memphis Center
Sat 12:07:32 PM 33.5983 -90.7289 303° West 448 516 38,000  Level Memphis Center
Sat 12:08:32 PM 33.6625 -90.8539 302° West 448 516 38,000  Level Memphis Center
Sat 12:09:32 PM 33.7267 -90.9742 303° West 448 516 38,000  Level Memphis Center
Sat 12:10:32 PM 33.7908 -91.0944 303° West 443 510 38,000  Level Memphis Center
Sat 12:11:32 PM 33.8547 -91.2175 302° West 438 504 38,000  Level Memphis Center
Sat 12:12:32 PM 33.9225 -91.3511 301° West 432 497 38,000  Level Memphis Center
Sat 12:13:32 PM 33.9883 -91.4744 303° West 432 497 38,000  Level Memphis Center
Sat 12:14:32 PM 34.0497 -91.5981 301° West 437 503 38,000  Level Memphis Center
Sat 12:15:32 PM 34.1172 -91.7219 303° West 432 497 38,000  Level Memphis Center
Sat 12:16:32 PM 34.1744 -91.8258 304° West 432 497 38,000 400 Level Memphis Center
Sat 12:17:32 PM 34.2356 -91.9500 301° West 432 497 38,800 850 Climbing Memphis Center
Sat 12:18:32 PM 34.3008 -92.0719 303° West 432 497 39,700 600 Climbing Memphis Center
Sat 12:19:32 PM 34.3597 -92.1914 301° West 432 497 40,000 150 Climbing Memphis Center
Sat 12:20:32 PM 34.4225 -92.3161 301° West 432 497 40,000  Level Memphis Center
Sat 12:21:32 PM 34.4850 -92.4408 301° West 437 503 40,000  Level Memphis Center
Sat 12:22:32 PM 34.5497 -92.5661 302° West 437 503 40,000  Level Memphis Center
Sat 12:23:32 PM 34.6122 -92.6939 301° West 437 503 40,000  Level Memphis Center
Sat 12:24:32 PM 34.6764 -92.8219 301° West 437 503 40,000  Level Memphis Center
Sat 12:25:32 PM 34.7386 -92.9450 302° West 437 503 40,000  Level Memphis Center
Sat 12:26:32 PM 34.8044 -93.0811 301° West 437 503 40,000  Level Memphis Center
Sat 12:27:32 PM 34.8664 -93.2069 301° West 437 503 40,000  Level Memphis Center
Sat 12:28:32 PM 34.9303 -93.3333 302° West 437 503 40,000  Level Memphis Center
Sat 12:29:32 PM 34.9917 -93.4597 301° West 437 503 40,000  Level Memphis Center
Sat 12:30:32 PM 35.0553 -93.5889 301° West 437 503 40,000  Level Memphis Center
Sat 12:31:32 PM 35.1147 -93.7078 301° West 430 495 40,000  Level Memphis Center
Sat 12:32:32 PM 35.1778 -93.8375 301° West 435 501 40,000  Level Memphis Center
Sat 12:33:32 PM 35.2389 -93.9669 300° West 435 501 40,000  Level Memphis Center
Sat 12:34:32 PM 35.3019 -94.0944 301° West 435 501 40,000  Level Memphis Center
Sat 12:35:32 PM 35.3606 -94.2219 299° West 434 499 40,000  Level Memphis Center
Sat 12:36:32 PM 35.4253 -94.3497 302° West 434 499 40,000  Level Memphis Center
Sat 12:37:32 PM 35.4861 -94.4672 302° West 442 509 40,000  Level Memphis Center
Sat 12:38:32 PM 35.5525 -94.6083 300° West 442 509 40,000  Level Memphis Center
Sat 12:39:32 PM 35.6147 -94.7367 301° West 437 503 40,000  Level Memphis Center
Sat 12:40:32 PM 35.6767 -94.8678 300° West 437 503 40,000  Level Memphis Center
Sat 12:41:06 PM 35.7100 -94.9414 299° West 441 507 40,000  Level Kansas City Center
Sat 12:42:09 PM 35.7744 -95.0708 302° West 442 509 40,000  Level Kansas City Center
Sat 12:43:10 PM 35.8381 -95.1994 301° West 438 504 40,000  Level Kansas City Center
Sat 12:44:13 PM 35.9003 -95.3325 300° West 442 509 40,000  Level Kansas City Center
Sat 12:45:13 PM 35.9628 -95.4639 300° West 442 509 40,000  Level Kansas City Center
Sat 12:46:16 PM 36.0250 -95.5969 300° West 443 510 40,000  Level Kansas City Center
Sat 12:47:17 PM 36.0922 -95.7367 301° West 445 512 40,000  Level Kansas City Center
Sat 12:48:22 PM 36.1497 -95.8619 300° West 440 506 40,000  Level Kansas City Center
Sat 12:49:22 PM 36.2117 -95.9925 300° West 438 504 40,000  Level Kansas City Center
Sat 12:50:22 PM 36.2850 -96.1483 300° West 435 501 40,000  Level Kansas City Center
Sat 12:51:27 PM 36.3453 -96.2783 300° West 434 499 40,000  Level Kansas City Center
Sat 12:52:28 PM 36.4044 -96.4094 299° West 434 499 40,000  Level Kansas City Center
Sat 12:53:28 PM 36.4653 -96.5400 300° West 434 499 40,000  Level Kansas City Center
Sat 12:54:30 PM 36.5256 -96.6706 300° West 435 501 40,000  Level Kansas City Center
Sat 12:55:32 PM 36.5856 -96.8019 300° West 435 501 40,000  Level Kansas City Center
Sat 12:56:37 PM 36.6458 -96.9336 300° West 436 502 40,000  Level Kansas City Center
Sat 12:57:37 PM 36.7036 -97.0653 299° West 434 499 40,000  Level Kansas City Center
Sat 12:58:40 PM 36.7689 -97.2158 298° West 430 495 40,000  Level Kansas City Center
Sat 12:59:45 PM 36.8169 -97.3528 294° West 430 495 40,000  Level Kansas City Center
Sat 01:00:46 PM 36.8647 -97.4853 294° West 432 497 40,000  Level Kansas City Center
Sat 01:01:47 PM 36.9236 -97.6544 294° West 437 503 40,000  Level Kansas City Center
Sat 01:02:51 PM 36.9733 -97.7939 294° West 439 505 40,000  Level Kansas City Center
Sat 01:03:51 PM 37.0225 -97.9331 294° West 438 504 40,000  Level Kansas City Center
Sat 01:04:55 PM 37.0714 -98.0722 294° West 436 502 40,000  Level Kansas City Center
Sat 01:05:56 PM 37.1192 -98.2100 294° West 434 499 40,000  Level Kansas City Center
Sat 01:06:59 PM 37.1672 -98.3481 294° West 431 496 40,000  Level Kansas City Center
Sat 01:08:00 PM 37.2158 -98.4867 294° West 432 497 40,000  Level Kansas City Center
Sat 01:09:01 PM 37.2744 -98.6544 294° West 433 498 40,000  Level Kansas City Center
Sat 01:10:04 PM 37.3228 -98.7950 293° West 435 501 40,000  Level Kansas City Center
Sat 01:11:08 PM 37.3711 -98.9361 293° West 436 502 40,000  Level Kansas City Center
Sat 01:12:09 PM 37.4197 -99.0767 294° West 437 503 40,000  Level Kansas City Center
Sat 01:13:10 PM 37.4647 -99.2144 292° West 432 497 40,000  Level Kansas City Center
Sat 01:14:13 PM 37.5119 -99.3564 293° West 435 501 40,000  Level Kansas City Center
Sat 01:15:15 PM 37.5697 -99.5233 294° West 439 505 40,000  Level Kansas City Center
Sat 01:16:15 PM 37.6147 -99.6578 293° West 437 503 40,000  Level Kansas City Center
Sat 01:17:19 PM 37.6667 -99.8133 293° West 433 498 40,000  Level Kansas City Center
Sat 01:18:20 PM 37.7103 -99.9447 293° West 428 493 40,000  Level Kansas City Center
Sat 01:19:23 PM 37.7614 -100.0975 293° West 425 489 40,000  Level Kansas City Center
Sat 01:20:24 PM 37.8033 -100.2278 292° West 421 484 40,000  Level Kansas City Center
Sat 01:21:25 PM 37.8553 -100.3814 293° West 425 489 40,000  Level Kansas City Center
Sat 01:22:29 PM 37.8969 -100.5139 292° West 424 488 40,000  Level Kansas City Center
Sat 01:23:30 PM 37.9467 -100.6656 293° West 422 486 40,000  Level Kansas City Center
Sat 01:24:33 PM 37.9886 -100.7944 292° West 419 482 40,000  Level Kansas City Center
Sat 01:25:35 PM 38.0356 -100.9453 292° West 415 478 40,000  Level Kansas City Center
Sat 01:26:35 PM 38.0783 -101.0786 292° West 424 488 40,000  Level Kansas City Center
Sat 01:27:39 PM 38.1264 -101.2317 292° West 422 486 40,000  Level Kansas City Center
Sat 01:28:25 PM 38.1611 -101.3414 292° West 422 486 40,000  Level Denver Center
Sat 01:29:27 PM 38.2058 -101.4731 293° West 424 488 40,000  Level Denver Center
Sat 01:30:29 PM 38.2778 -101.6131 303° West 424 488 40,000 -290 Level Denver Center
Sat 01:31:31 PM 38.3381 -101.7347 302° West 424 488 39,400 -750 Descending Denver Center
Sat 01:32:45 PM 38.4072 -101.8719 303° West 413 475 38,300 -964 Descending Denver Center
Sat 01:33:48 PM 38.4758 -102.0142 302° West 422 486 37,200 -1,008 Descending Denver Center
Sat 01:34:50 PM 38.5450 -102.1556 302° West 421 484 36,200 -968 Descending Denver Center
Sat 01:35:52 PM 38.6011 -102.2664 303° West 393 452 35,200 -1,258 Descending Denver Center
Sat 01:36:54 PM 38.6664 -102.4039 301° West 405 466 33,600 -1,645 Descending Denver Center
Sat 01:37:56 PM 38.7250 -102.5219 302° West 412 474 31,800 -1,742 Descending Denver Center
Sat 01:38:58 PM 38.7942 -102.6669 302° West 426 490 30,000 -871 Descending Denver Center
Sat 01:40:00 PM 38.8394 -102.7572 303° West 426 490 30,000  Level Denver Center
Sat 01:41:02 PM 38.9261 -102.9406 301° West 428 493 30,000  Level Denver Center
Sat 01:42:16 PM 38.9878 -103.0686 302° West 423 487 30,000  Level Denver Center
Sat 01:43:19 PM 39.0589 -103.2181 302° West 408 470 30,000 -816 Level Denver Center
Sat 01:44:21 PM 39.1161 -103.3372 302° West 395 455 28,300 -1,887 Descending Denver Center
Sat 01:45:23 PM 39.1700 -103.4514 301° West 378 435 26,100 -2,129 Descending Denver Center
Sat 01:46:25 PM 39.2225 -103.5625 301° West 369 425 23,900 -2,323 Descending Denver Center
Sat 01:47:27 PM 39.2825 -103.6925 301° West 354 407 21,300 -2,226 Descending Denver Center
Sat 01:48:29 PM 39.3300 -103.7947 301° West 336 387 19,300 -1,742 Descending Denver Center
Sat 01:49:31 PM 39.3758 -103.8950 301° West 327 376 17,700 -1,355 Descending Denver Center
Sat 01:50:33 PM 39.3986 -104.0028 285° West 287 330 16,500 -1,220 Descending Denver Center
Sat 01:51:34 PM 39.4031 -104.0886 274° West 285 328 15,200 -1,500 Descending Denver Center
Sat 01:52:37 PM 39.4081 -104.2097 273° West 275 316 13,400 -1,200 Descending Denver Center
Sat 01:53:39 PM 39.4122 -104.3019 273° West 260 299 12,700 -677 Descending Denver Center
Sat 01:54:41 PM 39.4394 -104.3833 293° West 244 281 12,000 -968 Descending Denver Center
Sat 01:55:43 PM 39.4831 -104.4489 311° West 240 276 10,700 -1,403 Descending Denver Center
Sat 01:56:45 PM 39.5278 -104.5228 308° West 258 297 9,100 -823 Descending Denver Center
Sat 01:57:47 PM 39.5819 -104.5789 321° Northwest 222 255 9,000 -49 Descending Denver Center
Sat 01:58:48 PM 39.6317 -104.6186 328° Northwest 211 243 9,000 -390 Level Denver Center
Sat 01:59:50 PM 39.6792 -104.6436 338° Northwest 190 219 8,200 -919 Descending Denver Center
Sat 02:00:52 PM 39.7347 -104.6428 North 187 215 7,100 -926 Descending Denver Center
Sat 02:02:06 PM 39.7919 -104.6422 360° North 158 182 6,100 -794 Descending Denver Center
Sat 02:03:08 PM 39.8328 -104.6417 North 148 170 5,300 -774 Descending Denver Center
Sat 02:05:00 PM 39.8500 -104.6667 North  Level FlightAware Approximate
Sat 02:12:00 PM 39.8617 -104.6732 North  Level Estimated
Sat 02:13:00 PM 39.8617 -104.6732 North  Level Estimated

Login

Don't have an account? Register now (free) for customized features, flight alerts, and more!